Time;durP1;ratioP1;P1;durP2;ratioP2;P2;SDS_P1;SDS_P2;PMS_P1;PMS_P2;Temp;Humidity;BMP_temperature;BMP_pressure;BME280_temperature;BME280_humidity;BME280_pressure;Samples;Min_cycle;Max_cycle;Signal;HPM_P1;HPM_P2
2022/08/06 00:02:00;;;;;;;3.70;1.30;;;14.50;99.90;;;;;;5037462;28;20398;-71
2022/08/06 00:04:25;;;;;;;1.45;0.80;;;14.50;99.90;;;;;;5054889;28;20108;-71
2022/08/06 00:06:51;;;;;;;3.15;0.85;;;14.30;99.90;;;;;;5055327;28;20059;-71
2022/08/06 00:09:17;;;;;;;1.73;1.10;;;14.30;99.90;;;;;;5053940;28;20079;-72
2022/08/06 00:11:42;;;;;;;4.75;1.85;;;14.20;99.90;;;;;;5054809;28;20123;-71
2022/08/06 00:14:08;;;;;;;2.28;1.20;;;15.00;99.90;;;;;;5054608;28;20044;-71
2022/08/06 00:16:34;;;;;;;2.88;0.85;;;14.40;99.90;;;;;;5053618;28;20566;-71
2022/08/06 00:19:00;;;;;;;3.35;1.00;;;14.50;99.90;;;;;;5036782;28;20045;-71
2022/08/06 00:21:25;;;;;;;6.43;1.15;;;14.30;99.90;;;;;;5053770;28;20120;-71
2022/08/06 00:23:51;;;;;;;2.08;0.73;;;14.20;99.90;;;;;;5053072;28;20033;-71
2022/08/06 00:26:17;;;;;;;2.42;0.70;;;14.40;99.90;;;;;;5054627;28;20033;-71
2022/08/06 00:28:42;;;;;;;0.90;0.65;;;14.20;99.90;;;;;;5054812;28;20090;-71
2022/08/06 00:31:08;;;;;;;4.15;0.80;;;14.10;99.90;;;;;;5054488;28;20041;-71
2022/08/06 00:33:34;;;;;;;1.27;0.68;;;14.20;99.90;;;;;;5054521;28;20490;-71
2022/08/06 00:36:01;;;;;;;3.60;0.80;;;14.00;99.90;;;;;;5054426;28;20033;-71
2022/08/06 00:38:26;;;;;;;2.78;0.70;;;14.10;99.90;;;;;;5036449;28;20041;-72
2022/08/06 00:40:53;;;;;;;4.47;0.65;;;14.10;99.90;;;;;;5052167;28;20132;-71
2022/08/06 00:43:19;;;;;;;2.55;0.90;;;14.10;99.90;;;;;;5052955;28;20514;-71
2022/08/06 00:45:45;;;;;;;3.47;1.00;;;14.10;99.90;;;;;;5052892;28;20091;-71
2022/08/06 00:48:11;;;;;;;2.00;0.70;;;14.00;99.90;;;;;;5053142;28;20384;-71
2022/08/06 00:50:37;;;;;;;1.55;0.60;;;14.00;99.90;;;;;;5036234;28;20040;-71
2022/08/06 00:53:03;;;;;;;2.08;0.80;;;14.00;99.90;;;;;;5053202;28;20052;-71
2022/08/06 00:55:30;;;;;;;3.20;0.80;;;14.20;99.90;;;;;;5053772;28;20043;-71
2022/08/06 00:57:55;;;;;;;2.42;0.75;;;14.10;99.90;;;;;;5036547;28;20508;-71
2022/08/06 01:00:21;;;;;;;3.58;0.90;;;16.20;99.90;;;;;;5052838;28;20120;-71
2022/08/06 01:02:47;;;;;;;2.90;0.90;;;;;;;;;;5052602;28;20044;-71
2022/08/06 01:05:12;;;;;;;1.05;0.73;;;13.90;99.90;;;;;;5053752;28;20522;-71
2022/08/06 01:07:38;;;;;;;1.33;0.60;;;14.00;99.90;;;;;;5054088;28;20044;-71
2022/08/06 01:10:04;;;;;;;4.95;0.82;;;13.90;99.90;;;;;;5052564;28;20037;-71
2022/08/06 01:12:30;;;;;;;0.98;0.50;;;13.80;99.90;;;;;;5052319;28;20049;-71
2022/08/06 01:14:55;;;;;;;2.05;0.68;;;13.90;99.90;;;;;;5052338;28;20045;-71
2022/08/06 01:17:27;;;;;;;2.88;0.68;;;13.80;99.90;;;;;;5052407;28;20043;-71
2022/08/06 01:20:20;;;;;;;2.13;0.70;;;13.80;99.90;;;;;;5052559;28;20049;-71
2022/08/06 01:23:06;;;;;;;0.77;0.50;;;13.80;99.90;;;;;;5053571;28;20111;-71
2022/08/06 01:26:12;;;;;;;1.48;0.68;;;13.70;99.90;;;;;;5052195;28;20522;-71
2022/08/06 01:28:50;;;;;;;2.60;0.60;;;13.60;99.90;;;;;;5003054;28;20147;-71
2022/08/06 01:31:26;;;;;;;0.52;0.50;;;13.70;99.90;;;;;;5052181;28;20033;-71
2022/08/06 01:33:57;;;;;;;2.13;0.80;;;13.70;99.90;;;;;;5051927;28;20450;-71
2022/08/06 01:36:42;;;;;;;1.23;0.63;;;13.50;99.90;;;;;;5053477;28;20045;-71
2022/08/06 01:39:13;;;;;;;2.08;0.80;;;15.80;99.90;;;;;;5051991;28;20087;-71
2022/08/06 01:41:45;;;;;;;2.28;0.70;;;13.50;99.90;;;;;;5053235;28;20032;-71
2022/08/06 01:44:15;;;;;;;0.90;0.68;;;13.30;99.90;;;;;;5052055;28;20402;-71
2022/08/06 01:46:46;;;;;;;4.05;1.23;;;13.30;99.90;;;;;;5035223;28;20049;-71
2022/08/06 01:49:13;;;;;;;2.03;1.05;;;13.30;99.90;;;;;;5052213;28;20401;-71
2022/08/06 01:51:40;;;;;;;0.52;0.50;;;13.30;99.90;;;;;;5051908;28;20423;-71
2022/08/06 01:54:08;;;;;;;1.77;0.70;;;13.20;99.90;;;;;;5051266;28;20063;-71
2022/08/06 01:56:38;;;;;;;2.35;0.80;;;13.40;99.90;;;;;;5051448;28;20152;-71
2022/08/06 01:59:06;;;;;;;0.88;0.68;;;13.20;99.90;;;;;;5051830;28;20045;-71
2022/08/06 02:01:34;;;;;;;1.08;0.60;;;13.30;99.90;;;;;;5051552;28;20099;-71
2022/08/06 02:04:00;;;;;;;1.20;0.70;;;13.30;99.90;;;;;;5051095;28;20045;-71
2022/08/06 02:06:41;;;;;;;1.65;0.63;;;13.30;99.90;;;;;;5052914;28;20041;-71
2022/08/06 02:09:15;;;;;;;0.65;0.63;;;13.30;99.90;;;;;;5051357;28;20132;-71
2022/08/06 02:11:44;;;;;;;2.85;1.50;;;13.10;99.90;;;;;;5052645;28;20076;-71
2022/08/06 02:14:12;;;;;;;1.50;1.08;;;13.10;99.90;;;;;;5051100;28;20045;-71
2022/08/06 02:16:41;;;;;;;1.52;0.88;;;13.20;99.90;;;;;;5051492;28;20033;-71
2022/08/06 02:19:11;;;;;;;1.38;0.98;;;13.10;99.90;;;;;;5051283;28;20525;-71
2022/08/06 02:21:40;;;;;;;3.00;0.90;;;13.10;99.90;;;;;;5051064;28;20064;-71
2022/08/06 02:24:08;;;;;;;1.25;1.13;;;13.10;99.90;;;;;;5052172;28;20117;-71
2022/08/06 02:26:36;;;;;;;2.45;1.10;;;13.10;99.90;;;;;;5052476;28;20051;-71
2022/08/06 02:29:08;;;;;;;1.77;1.27;;;13.00;99.90;;;;;;5051217;28;20086;-71
2022/08/06 02:31:34;;;;;;;1.20;1.00;;;13.10;99.90;;;;;;5034390;28;20155;-71
2022/08/06 02:34:00;;;;;;;3.20;1.20;;;13.10;99.90;;;;;;5050673;28;20131;-71
2022/08/06 02:36:41;;;;;;;1.38;1.27;;;13.10;99.90;;;;;;5052484;28;20037;-71
2022/08/06 02:39:13;;;;;;;2.25;1.42;;;13.10;99.90;;;;;;5050866;28;20045;-71
2022/08/06 02:41:49;;;;;;;4.13;1.35;;;13.00;99.90;;;;;;5052107;28;20052;-71
2022/08/06 02:44:35;;;;;;;1.30;1.13;;;13.00;99.90;;;;;;5050914;28;20080;-71
2022/08/06 02:47:50;;;;;;;2.58;1.27;;;12.90;99.90;;;;;;5034252;28;20066;-71
2022/08/06 02:50:19;;;;;;;3.10;1.35;;;12.80;99.90;;;;;;5033543;28;20430;-71
2022/08/06 02:52:52;;;;;;;2.45;1.30;;;12.80;99.90;;;;;;5051762;28;20032;-71
2022/08/06 02:55:21;;;;;;;2.25;1.17;;;12.80;99.90;;;;;;5052021;28;20039;-71
2022/08/06 02:57:56;;;;;;;1.60;1.35;;;12.80;99.90;;;;;;5050681;28;20040;-71
2022/08/06 03:00:24;;;;;;;1.30;1.20;;;12.80;99.90;;;;;;5050599;28;20052;-69
2022/08/06 03:02:55;;;;;;;2.53;1.35;;;12.80;99.90;;;;;;5051702;28;20112;-71
2022/08/06 03:05:22;;;;;;;2.05;1.40;;;12.90;99.90;;;;;;5033307;28;20639;-71
2022/08/06 03:07:51;;;;;;;2.45;1.30;;;12.90;99.90;;;;;;5050917;28;20063;-71
2022/08/06 03:10:19;;;;;;;1.52;1.33;;;12.50;99.90;;;;;;5051874;28;20040;-71
2022/08/06 03:12:47;;;;;;;2.65;2.00;;;12.80;99.90;;;;;;5050483;28;20037;-71
2022/08/06 03:15:13;;;;;;;2.85;1.65;;;12.60;99.90;;;;;;5050227;28;20089;-71
2022/08/06 03:17:41;;;;;;;2.85;1.35;;;12.50;99.90;;;;;;5050413;28;20087;-71
2022/08/06 03:20:08;;;;;;;1.95;1.48;;;12.40;99.90;;;;;;5050399;28;20037;-71
2022/08/06 03:22:36;;;;;;;2.85;1.55;;;12.70;99.90;;;;;;5050205;28;20083;-71
2022/08/06 03:25:04;;;;;;;3.88;1.52;;;12.70;99.90;;;;;;5051515;28;20072;-71
2022/08/06 03:27:31;;;;;;;3.35;1.48;;;12.80;99.90;;;;;;5051496;28;20057;-71
2022/08/06 03:29:58;;;;;;;1.40;1.30;;;12.70;99.90;;;;;;5051571;28;20045;-71
2022/08/06 03:32:24;;;;;;;3.33;1.60;;;12.90;99.90;;;;;;5050522;28;20056;-71
2022/08/06 03:34:52;;;;;;;2.90;1.52;;;12.80;99.90;;;;;;5049946;28;20036;-71
2022/08/06 03:37:19;;;;;;;4.38;1.40;;;12.80;99.90;;;;;;5050295;28;20048;-71
2022/08/06 03:39:46;;;;;;;3.20;1.52;;;12.80;99.90;;;;;;5050241;28;20123;-71
2022/08/06 03:42:11;;;;;;;3.50;1.50;;;12.80;99.90;;;;;;5050418;28;20041;-71
2022/08/06 03:44:37;;;;;;;1.90;1.45;;;12.90;99.90;;;;;;5049936;28;20033;-71
2022/08/06 03:47:11;;;;;;;1.60;1.50;;;12.90;99.90;;;;;;5033537;28;20126;-71
2022/08/06 03:49:41;;;;;;;2.80;1.60;;;12.80;99.90;;;;;;5033904;28;20402;-71
2022/08/06 03:52:08;;;;;;;2.95;1.30;;;12.70;99.90;;;;;;5049935;28;20116;-71
2022/08/06 03:54:38;;;;;;;2.38;1.27;;;12.80;99.90;;;;;;5049582;28;20048;-71
2022/08/06 03:57:09;;;;;;;2.55;1.33;;;12.80;99.90;;;;;;5051341;28;20167;-71
2022/08/06 03:59:37;;;;;;;3.75;1.90;;;12.90;99.90;;;;;;5050022;28;20033;-71
2022/08/06 04:02:04;;;;;;;4.82;2.03;;;13.30;99.90;;;;;;5049942;28;20044;-71
2022/08/06 04:04:32;;;;;;;4.75;1.70;;;;;;;;;;5049690;28;20037;-71
2022/08/06 04:06:59;;;;;;;1.95;1.50;;;12.80;99.90;;;;;;5050134;28;20053;-71
2022/08/06 04:09:27;;;;;;;3.92;1.70;;;12.70;99.90;;;;;;5050288;28;20041;-71
2022/08/06 04:11:54;;;;;;;2.55;1.52;;;12.70;99.90;;;;;;5050934;28;20048;-71
2022/08/06 04:14:20;;;;;;;3.55;1.63;;;12.90;99.90;;;;;;5049614;28;20037;-71
2022/08/06 04:16:48;;;;;;;1.40;1.30;;;13.00;99.90;;;;;;5052522;28;20080;-71
2022/08/06 04:19:18;;;;;;;2.22;1.95;;;12.90;99.90;;;;;;5053491;28;20047;-71
2022/08/06 04:21:44;;;;;;;3.67;1.80;;;12.90;99.90;;;;;;5053387;28;20048;-71
2022/08/06 04:24:10;;;;;;;2.85;1.67;;;12.90;99.90;;;;;;5053329;28;20075;-71
2022/08/06 04:26:38;;;;;;;3.40;1.70;;;12.70;99.90;;;;;;5053685;28;20648;-71
2022/08/06 04:29:06;;;;;;;6.38;1.73;;;13.00;99.90;;;;;;5053349;28;20037;-71
2022/08/06 04:31:33;;;;;;;2.17;1.50;;;12.90;99.90;;;;;;5054735;28;20048;-71
2022/08/06 04:34:00;;;;;;;4.45;2.10;;;13.00;99.90;;;;;;5036304;28;20410;-71
2022/08/06 04:36:28;;;;;;;2.83;1.80;;;12.80;99.90;;;;;;5054514;28;20036;-71
2022/08/06 04:38:54;;;;;;;1.40;1.30;;;13.00;99.90;;;;;;5053263;28;20033;-71
2022/08/06 04:41:21;;;;;;;3.15;1.95;;;12.80;99.90;;;;;;5053123;28;20040;-71
2022/08/06 04:43:47;;;;;;;5.25;2.08;;;12.90;99.90;;;;;;5052867;28;20510;-71
2022/08/06 04:46:13;;;;;;;2.78;1.65;;;13.00;99.90;;;;;;5053299;28;20076;-71
2022/08/06 04:48:39;;;;;;;2.95;1.70;;;13.20;99.90;;;;;;5052975;28;20048;-71
2022/08/06 04:51:05;;;;;;;1.90;1.70;;;13.20;99.90;;;;;;5053020;28;20044;-71
2022/08/06 04:53:38;;;;;;;1.92;1.60;;;13.30;99.90;;;;;;5052728;28;20481;-71
2022/08/06 04:56:05;;;;;;;;;;;13.30;99.90;;;;;;5053018;28;20037;-71
2022/08/06 04:58:31;;;;;;;2.10;1.80;;;13.30;99.90;;;;;;5054251;28;19923;-71
2022/08/06 05:00:56;;;;;;;4.47;1.90;;;13.30;99.90;;;;;;5054191;28;20116;-71
2022/08/06 05:03:22;;;;;;;2.22;1.58;;;13.50;99.90;;;;;;5053883;28;20502;-71
2022/08/06 05:05:58;;;;;;;3.15;1.85;;;13.40;99.90;;;;;;5052677;28;20099;-71
2022/08/06 05:08:26;;;;;;;4.53;1.63;;;13.30;99.90;;;;;;5052381;28;20091;-71
2022/08/06 05:11:01;;;;;;;2.15;1.83;;;13.60;99.90;;;;;;5052448;28;20459;-71
2022/08/06 05:13:32;;;;;;;3.85;1.83;;;13.60;99.90;;;;;;5049282;28;20521;-71
2022/08/06 05:16:03;;;;;;;1.88;1.77;;;13.50;99.90;;;;;;5050728;28;20112;-70
2022/08/06 05:18:41;;;;;;;3.88;2.00;;;13.70;99.90;;;;;;5051127;28;20108;-70
2022/08/06 05:21:10;;;;;;;1.98;1.67;;;13.60;99.90;;;;;;5052961;28;20041;-70
2022/08/06 05:23:40;;;;;;;3.00;1.90;;;13.60;99.90;;;;;;5052391;28;20380;-70
2022/08/06 05:26:07;;;;;;;3.08;1.73;;;13.50;99.90;;;;;;5051898;28;20074;-70
2022/08/06 05:28:33;;;;;;;2.63;1.60;;;13.60;99.90;;;;;;5051628;28;20398;-71
2022/08/06 05:30:59;;;;;;;2.35;2.15;;;13.60;99.90;;;;;;5053335;28;20513;-71
2022/08/06 05:33:27;;;;;;;3.10;1.77;;;13.70;99.90;;;;;;5051458;28;20029;-70
2022/08/06 05:35:53;;;;;;;6.30;1.75;;;13.80;99.90;;;;;;5051088;28;20044;-71
2022/08/06 05:38:19;;;;;;;1.20;1.10;;;13.90;99.90;;;;;;5051797;28;20037;-71
2022/08/06 05:40:45;;;;;;;2.85;1.48;;;14.10;99.90;;;;;;5051577;28;20033;-70
2022/08/06 05:43:10;;;;;;;2.33;1.33;;;14.30;99.90;;;;;;5052659;28;20041;-70
2022/08/06 05:45:39;;;;;;;5.55;1.45;;;14.10;99.90;;;;;;5051574;28;20494;-71
2022/08/06 05:48:06;;;;;;;3.65;0.98;;;14.40;99.90;;;;;;5052487;28;20041;-70
2022/08/06 05:50:40;;;;;;;2.28;1.15;;;14.50;99.90;;;;;;5055528;28;20037;-70
2022/08/06 05:53:16;;;;;;;4.57;1.33;;;14.40;99.90;;;;;;5041049;28;20506;-70
2022/08/06 05:55:56;;;;;;;3.10;1.25;;;14.60;99.90;;;;;;5031487;28;20525;-70
2022/08/06 05:58:33;;;;;;;3.50;0.80;;;14.50;99.90;;;;;;5043286;28;20052;-70
2022/08/06 06:01:03;;;;;;;1.85;1.00;;;14.60;99.90;;;;;;5035052;28;20037;-70
2022/08/06 06:03:30;;;;;;;1.92;0.90;;;15.00;99.90;;;;;;5015690;28;20052;-70
2022/08/06 06:05:57;;;;;;;2.63;0.80;;;14.90;99.90;;;;;;5042198;28;20116;-70
2022/08/06 06:08:24;;;;;;;1.25;0.70;;;15.00;99.90;;;;;;5061446;28;20781;-70
2022/08/06 06:10:50;;;;;;;2.22;0.80;;;15.60;99.90;;;;;;5070563;28;20041;-70
2022/08/06 06:13:16;;;;;;;1.52;0.88;;;15.30;99.90;;;;;;5070228;28;20040;-70
2022/08/06 06:15:49;;;;;;;1.75;0.88;;;15.50;99.90;;;;;;5072058;28;20059;-70
2022/08/06 06:18:33;;;;;;;3.30;1.00;;;15.50;99.90;;;;;;5072697;28;20051;-70
2022/08/06 06:21:26;;;;;;;3.80;0.60;;;15.50;99.90;;;;;;5070995;28;20379;-70
2022/08/06 06:24:02;;;;;;;3.53;0.80;;;15.70;99.90;;;;;;5071879;28;20045;-68
2022/08/06 06:26:35;;;;;;;1.40;0.80;;;15.80;99.90;;;;;;5071435;28;20044;-71
2022/08/06 06:29:07;;;;;;;2.15;0.80;;;15.90;99.90;;;;;;5071380;28;20414;-71
2022/08/06 06:32:05;;;;;;;2.00;0.65;;;16.00;99.90;;;;;;5054305;28;20048;-70
2022/08/06 06:34:46;;;;;;;1.42;0.70;;;16.20;99.90;;;;;;5071642;28;20120;-71
2022/08/06 06:37:47;;;;;;;3.30;1.30;;;16.20;99.90;;;;;;5054766;28;20525;-71
2022/08/06 06:40:21;;;;;;;2.10;1.00;;;16.50;99.90;;;;;;5052098;28;20040;-72
2022/08/06 06:43:12;;;;;;;6.32;0.82;;;16.60;99.90;;;;;;5048714;28;20172;-71
2022/08/06 06:46:01;;;;;;;4.47;1.10;;;16.60;99.90;;;;;;5045910;28;20045;-71
2022/08/06 06:48:46;;;;;;;3.63;1.25;;;16.60;99.90;;;;;;5031246;28;20048;-71
2022/08/06 06:51:34;;;;;;;3.60;1.08;;;16.90;99.90;;;;;;5050878;28;20505;-71
2022/08/06 06:54:00;;;;;;;2.55;0.70;;;17.00;99.90;;;;;;5050262;28;20049;-71
2022/08/06 06:56:41;;;;;;;4.80;1.10;;;17.00;99.90;;;;;;5051832;28;20033;-71
2022/08/06 06:59:21;;;;;;;2.53;1.10;;;17.20;99.90;;;;;;5052074;28;20029;-71
2022/08/06 07:01:48;;;;;;;2.35;1.48;;;17.20;99.90;;;;;;5050249;28;20478;-70
2022/08/06 07:04:17;;;;;;;2.55;1.02;;;17.30;99.90;;;;;;5047025;28;20037;-70
2022/08/06 07:06:46;;;;;;;4.68;0.85;;;17.30;99.90;;;;;;5046860;28;20060;-71
2022/08/06 07:09:18;;;;;;;3.75;1.38;;;17.50;99.90;;;;;;5048271;28;20118;-71
2022/08/06 07:11:44;;;;;;;2.50;1.20;;;17.60;99.90;;;;;;5044704;28;20049;-71
2022/08/06 07:14:11;;;;;;;7.18;1.80;;;18.00;99.90;;;;;;5031714;28;20072;-71
2022/08/06 07:16:37;;;;;;;2.45;1.13;;;17.80;99.90;;;;;;5046249;28;20037;-70
2022/08/06 07:19:05;;;;;;;4.65;1.75;;;18.50;99.90;;;;;;5043634;28;20048;-71
2022/08/06 07:21:32;;;;;;;2.63;1.45;;;;;;;;;;5044291;28;20127;-71
2022/08/06 07:23:58;;;;;;;12.95;2.08;;;18.10;99.90;;;;;;5047888;28;20051;-71
2022/08/06 07:26:34;;;;;;;5.25;1.42;;;18.20;99.90;;;;;;5046642;28;20037;-71
2022/08/06 07:29:02;;;;;;;4.18;1.48;;;18.20;99.90;;;;;;5028201;28;20107;-71
2022/08/06 07:31:30;;;;;;;9.63;2.70;;;18.40;99.90;;;;;;5046655;28;20049;-70
2022/08/06 07:33:56;;;;;;;6.38;1.88;;;18.40;99.90;;;;;;5046181;28;20809;-71
2022/08/06 07:36:23;;;;;;;4.15;1.92;;;18.30;99.90;;;;;;5043220;28;20514;-71
2022/08/06 07:38:50;;;;;;;2.92;1.23;;;18.30;99.90;;;;;;5046594;28;20086;-71
2022/08/06 07:41:17;;;;;;;3.25;1.25;;;18.60;99.90;;;;;;5047934;28;20555;-71
2022/08/06 07:43:46;;;;;;;3.05;1.45;;;18.50;99.90;;;;;;5047782;28;20109;-70
2022/08/06 07:46:17;;;;;;;3.83;1.58;;;18.50;99.90;;;;;;5046149;28;20045;-71
2022/08/06 07:48:47;;;;;;;3.45;1.45;;;18.60;99.90;;;;;;5032162;28;20047;-72
2022/08/06 07:51:14;;;;;;;2.38;1.35;;;18.80;99.90;;;;;;5059484;28;20287;-72
2022/08/06 07:53:41;;;;;;;3.50;1.60;;;18.70;99.90;;;;;;5073959;28;20040;-72
2022/08/06 07:56:09;;;;;;;3.15;1.58;;;18.80;99.90;;;;;;5074322;28;20090;-71
2022/08/06 07:58:36;;;;;;;3.00;1.20;;;18.90;99.90;;;;;;5074016;28;20040;-71
2022/08/06 08:01:02;;;;;;;4.35;1.55;;;19.20;99.90;;;;;;5074078;28;20036;-74
2022/08/06 08:06:18;;;;;;;3.72;1.30;;;18.80;99.90;;;;;;5075138;28;20178;-75
2022/08/06 08:09:07;;;;;;;5.47;1.67;;;19.60;99.90;;;;;;5075121;28;20119;-75
2022/08/06 08:11:33;;;;;;;4.88;1.60;;;18.70;99.90;;;;;;5073821;28;20040;-74
2022/08/06 08:14:02;;;;;;;4.43;1.67;;;18.90;99.90;;;;;;5056316;28;20119;-74
2022/08/06 08:16:28;;;;;;;3.83;1.40;;;19.00;99.90;;;;;;5073440;28;20036;-75
2022/08/06 08:18:54;;;;;;;4.20;1.65;;;19.10;99.90;;;;;;5073753;28;20043;-74
2022/08/06 08:21:21;;;;;;;2.47;1.58;;;19.30;99.90;;;;;;5057168;28;20193;-75
2022/08/06 08:23:48;;;;;;;3.22;1.50;;;19.30;99.90;;;;;;5074649;28;20036;-74
2022/08/06 08:26:13;;;;;;;2.25;1.33;;;19.70;99.90;;;;;;5074634;28;20113;-75
2022/08/06 08:28:39;;;;;;;4.03;1.35;;;19.70;99.90;;;;;;5074616;28;20083;-74
2022/08/06 08:31:06;;;;;;;2.95;1.50;;;19.10;99.90;;;;;;5056589;28;20040;-74
2022/08/06 08:33:33;;;;;;;2.70;1.27;;;19.00;99.90;;;;;;5074568;28;20098;-74
2022/08/06 08:36:00;;;;;;;3.70;1.60;;;18.70;99.90;;;;;;5072952;28;20119;-74
2022/08/06 08:38:33;;;;;;;1.40;1.05;;;19.60;99.90;;;;;;5073333;28;20517;-75
2022/08/06 08:41:00;;;;;;;;;;;19.00;99.90;;;;;;5073720;28;20036;-74
2022/08/06 08:43:37;;;;;;;3.88;1.33;;;18.90;99.90;;;;;;5073209;28;19916;-74
2022/08/06 08:46:06;;;;;;;2.72;1.33;;;20.30;99.90;;;;;;5072900;28;20052;-74
2022/08/06 08:48:32;;;;;;;3.28;1.35;;;19.60;99.90;;;;;;5073102;28;20151;-75
2022/08/06 08:50:59;;;;;;;2.55;1.30;;;19.80;99.90;;;;;;5073228;28;20047;-75
2022/08/06 08:53:32;;;;;;;1.75;1.00;;;20.80;99.90;;;;;;5073056;28;20424;-75
2022/08/06 08:55:58;;;;;;;;;;;21.50;99.90;;;;;;5074362;28;20550;-74
2022/08/06 08:58:24;;;;;;;4.53;1.40;;;20.50;99.90;;;;;;5056371;28;19920;-74
2022/08/06 09:00:49;;;;;;;2.95;1.30;;;20.90;99.90;;;;;;5072958;28;20036;-75
2022/08/06 09:03:15;;;;;;;2.10;1.45;;;20.20;99.90;;;;;;5072487;28;20115;-75
2022/08/06 09:05:41;;;;;;;2.85;1.20;;;18.90;99.60;;;;;;5073754;28;20045;-75
2022/08/06 09:08:10;;;;;;;2.42;1.23;;;19.70;99.90;;;;;;5073002;28;20037;-75
2022/08/06 09:10:36;;;;;;;2.53;1.60;;;19.20;99.90;;;;;;5072578;28;20494;-75
2022/08/06 09:13:02;;;;;;;3.17;1.48;;;19.10;99.90;;;;;;5072742;28;20109;-75
2022/08/06 09:15:28;;;;;;;4.43;1.02;;;19.20;99.90;;;;;;5072268;28;20041;-75
2022/08/06 09:17:54;;;;;;;2.90;1.23;;;18.90;99.90;;;;;;5055560;28;20413;-74
2022/08/06 09:20:20;;;;;;;3.10;1.55;;;18.90;99.90;;;;;;5072763;28;20045;-75
2022/08/06 09:22:50;;;;;;;4.43;1.40;;;18.60;99.90;;;;;;5072336;28;20492;-74
2022/08/06 09:25:36;;;;;;;4.43;1.45;;;18.40;99.90;;;;;;5072196;28;20040;-74
2022/08/06 09:28:03;;;;;;;2.50;1.30;;;19.40;99.90;;;;;;5072301;28;20072;-74
2022/08/06 09:30:30;;;;;;;2.13;1.23;;;19.50;99.90;;;;;;5072386;28;20040;-75
2022/08/06 09:32:56;;;;;;;2.53;1.23;;;19.70;99.90;;;;;;5073229;28;20036;-74
2022/08/06 09:35:22;;;;;;;3.92;1.60;;;19.90;99.90;;;;;;5071811;28;20067;-74
2022/08/06 09:37:50;;;;;;;6.68;1.45;;;20.30;99.90;;;;;;5073541;28;20405;-75
2022/08/06 09:40:19;;;;;;;2.20;1.35;;;20.90;99.90;;;;;;5072456;28;20033;-74
2022/08/06 09:42:50;;;;;;;4.63;1.42;;;20.20;99.90;;;;;;5073224;28;20068;-75
2022/08/06 09:45:18;;;;;;;3.95;1.42;;;20.10;99.90;;;;;;5071647;28;20078;-75
2022/08/06 09:47:48;;;;;;;1.63;1.23;;;20.20;99.90;;;;;;5072022;28;20123;-75
2022/08/06 09:50:14;;;;;;;2.90;1.50;;;20.20;99.90;;;;;;5072135;28;20482;-75
2022/08/06 09:52:40;;;;;;;3.25;1.30;;;20.40;99.90;;;;;;5071716;28;20051;-75
2022/08/06 09:55:06;;;;;;;2.05;1.13;;;20.70;99.90;;;;;;5071718;28;20040;-75
2022/08/06 09:57:46;;;;;;;2.20;1.50;;;21.00;99.60;;;;;;5055121;28;20036;-75
2022/08/06 10:00:24;;;;;;;2.90;1.38;;;21.50;99.30;;;;;;5072922;28;20111;-75
2022/08/06 10:02:56;;;;;;;2.92;1.73;;;21.40;99.50;;;;;;5055236;28;20433;-75
2022/08/06 10:05:23;;;;;;;4.07;1.58;;;20.80;99.10;;;;;;5071217;28;20039;-75
2022/08/06 10:08:02;;;;;;;3.03;1.45;;;21.30;99.00;;;;;;5072925;28;20203;-75
2022/08/06 10:10:48;;;;;;;4.57;1.70;;;21.20;98.70;;;;;;5072731;28;20162;-75
2022/08/06 10:13:23;;;;;;;2.88;1.67;;;22.60;99.10;;;;;;5053783;28;20037;-75
2022/08/06 10:15:50;;;;;;;3.15;1.60;;;21.40;99.10;;;;;;5072434;28;20116;-75
2022/08/06 10:18:34;;;;;;;3.22;1.58;;;21.60;99.20;;;;;;5071102;28;20047;-74
2022/08/06 10:21:05;;;;;;;4.78;1.70;;;20.90;98.60;;;;;;5072734;28;20093;-75
2022/08/06 10:23:33;;;;;;;3.92;1.35;;;21.30;99.20;;;;;;5071050;28;20559;-75
2022/08/06 10:26:00;;;;;;;3.22;1.80;;;22.20;99.60;;;;;;5070829;28;20036;-75
2022/08/06 10:28:27;;;;;;;4.38;1.90;;;21.40;98.10;;;;;;5054629;28;20040;-75
2022/08/06 10:30:54;;;;;;;4.38;2.15;;;21.70;98.70;;;;;;5070916;28;20123;-75
2022/08/06 10:33:23;;;;;;;2.60;1.50;;;22.40;98.80;;;;;;5071069;28;20047;-74
2022/08/06 10:35:57;;;;;;;3.63;2.00;;;21.60;98.90;;;;;;5072079;28;20043;-75
2022/08/06 10:38:26;;;;;;;2.90;1.67;;;21.60;97.70;;;;;;5072455;28;20440;-75
2022/08/06 10:40:53;;;;;;;4.32;2.47;;;21.90;98.80;;;;;;5054579;28;20387;-75
2022/08/06 10:43:19;;;;;;;3.42;2.00;;;20.90;98.60;;;;;;5070935;28;20076;-75
2022/08/06 10:45:45;;;;;;;2.65;1.50;;;21.20;99.00;;;;;;5071883;28;20044;-75
2022/08/06 10:48:11;;;;;;;3.95;1.60;;;21.20;99.10;;;;;;5070984;28;20044;-75
2022/08/06 10:50:38;;;;;;;2.67;1.80;;;20.60;99.30;;;;;;5072204;28;20413;-75
2022/08/06 10:53:05;;;;;;;4.20;1.88;;;21.50;99.90;;;;;;5071984;28;20036;-75
2022/08/06 10:55:31;;;;;;;2.75;1.73;;;21.10;99.80;;;;;;5070672;28;20382;-75
2022/08/06 10:57:58;;;;;;;4.57;2.08;;;20.60;99.80;;;;;;5070538;28;20119;-75
2022/08/06 11:00:25;;;;;;;2.85;1.67;;;21.10;99.90;;;;;;5070841;28;20036;-75
2022/08/06 11:02:55;;;;;;;3.72;1.75;;;20.50;99.60;;;;;;5070665;28;20047;-75
2022/08/06 11:05:29;;;;;;;4.90;1.95;;;20.40;99.90;;;;;;5071725;28;20128;-75
2022/08/06 11:08:12;;;;;;;4.57;1.98;;;20.40;99.70;;;;;;5070665;28;20040;-75
2022/08/06 11:11:06;;;;;;;3.72;2.08;;;20.30;99.60;;;;;;5070586;28;20131;-74
2022/08/06 11:14:02;;;;;;;3.22;2.10;;;20.80;99.40;;;;;;5071510;28;20333;-75
2022/08/06 11:16:30;;;;;;;5.63;2.20;;;20.70;99.40;;;;;;5071345;28;20375;-75
2022/08/06 11:19:10;;;;;;;2.80;1.63;;;21.40;99.60;;;;;;5070550;28;20537;-75
2022/08/06 11:21:46;;;;;;;3.30;1.95;;;21.30;99.30;;;;;;5053701;28;20039;-75
2022/08/06 11:24:13;;;;;;;4.10;1.90;;;21.40;98.80;;;;;;5071532;28;20036;-75
2022/08/06 11:26:41;;;;;;;4.35;2.38;;;21.70;98.80;;;;;;5074869;28;20044;-76
2022/08/06 11:29:11;;;;;;;3.10;1.60;;;21.60;98.60;;;;;;5076079;28;20054;-76
2022/08/06 11:31:48;;;;;;;3.10;1.35;;;21.70;98.40;;;;;;5074746;28;20083;-76
2022/08/06 11:34:19;;;;;;;8.77;2.08;;;21.40;97.90;;;;;;5074465;28;20041;-76
2022/08/06 11:36:59;;;;;;;4.15;1.45;;;23.10;99.20;;;;;;5075044;28;20041;-76
2022/08/06 11:39:29;;;;;;;1.45;1.20;;;21.50;98.20;;;;;;5074454;28;20536;-76
2022/08/06 11:41:56;;;;;;;2.90;1.58;;;21.30;98.60;;;;;;5076149;28;20033;-76
2022/08/06 11:44:24;;;;;;;3.95;1.70;;;21.60;98.80;;;;;;5074708;28;20494;-76
2022/08/06 11:47:08;;;;;;;2.15;1.30;;;21.30;98.30;;;;;;5075060;28;20040;-76
2022/08/06 11:49:38;;;;;;;3.78;1.75;;;21.70;98.40;;;;;;5076243;28;20040;-76
2022/08/06 11:52:04;;;;;;;3.47;1.30;;;20.80;98.50;;;;;;5074593;28;20502;-76
2022/08/06 11:54:50;;;;;;;2.28;1.20;;;21.60;99.00;;;;;;5057729;28;20055;-76
2022/08/06 11:57:16;;;;;;;1.92;1.30;;;21.80;98.30;;;;;;5075650;28;20120;-76
2022/08/06 11:59:47;;;;;;;1.38;1.27;;;21.80;97.90;;;;;;5074611;28;20131;-76
2022/08/06 12:02:16;;;;;;;2.28;1.40;;;21.60;97.90;;;;;;5074555;28;20037;-76
2022/08/06 12:04:44;;;;;;;1.77;1.30;;;21.20;98.40;;;;;;5074927;28;20094;-76
2022/08/06 12:07:21;;;;;;;2.92;1.33;;;21.60;98.40;;;;;;5075258;28;20406;-76
2022/08/06 12:10:16;;;;;;;2.85;1.20;;;21.50;97.90;;;;;;5075210;28;20044;-76
2022/08/06 12:12:47;;;;;;;2.45;1.40;;;21.70;97.80;;;;;;5073580;28;20139;-77
2022/08/06 12:15:12;;;;;;;1.73;1.35;;;21.70;97.60;;;;;;5073484;28;20059;-76
2022/08/06 12:17:53;;;;;;;3.67;1.52;;;21.70;97.70;;;;;;5073193;28;20040;-76
2022/08/06 12:20:37;;;;;;;7.07;2.05;;;21.90;98.20;;;;;;5073743;28;20086;-76
2022/08/06 12:23:12;;;;;;;3.58;1.88;;;22.50;97.30;;;;;;5073451;28;20054;-76
2022/08/06 12:25:43;;;;;;;3.17;1.73;;;23.40;96.50;;;;;;5074706;28;20064;-76
2022/08/06 12:28:11;;;;;;;1.60;1.40;;;22.60;96.10;;;;;;5074911;28;20072;-73
2022/08/06 12:30:41;;;;;;;2.25;1.67;;;22.60;96.00;;;;;;5073583;28;20513;-76
2022/08/06 12:33:08;;;;;;;1.80;1.33;;;23.20;96.20;;;;;;5074379;28;20036;-76
2022/08/06 12:35:34;;;;;;;4.00;1.70;;;22.80;96.20;;;;;;5074126;28;20052;-76
2022/08/06 12:38:00;;;;;;;2.60;1.40;;;22.80;96.60;;;;;;5072432;28;20074;-76
2022/08/06 12:40:28;;;;;;;3.67;2.00;;;23.40;96.80;;;;;;5073401;28;20044;-76
2022/08/06 12:43:00;;;;;;;2.40;1.35;;;23.20;96.50;;;;;;5072648;28;20032;-76
2022/08/06 12:45:29;;;;;;;2.67;1.95;;;22.50;96.10;;;;;;5072845;28;20102;-77
2022/08/06 12:48:01;;;;;;;3.83;1.83;;;22.70;96.20;;;;;;5074668;28;20394;-76
2022/08/06 12:50:28;;;;;;;4.03;2.17;;;22.70;95.70;;;;;;5073039;28;20036;-76
2022/08/06 12:53:11;;;;;;;1.77;1.40;;;22.60;96.40;;;;;;5074197;28;20039;-76
2022/08/06 12:55:41;;;;;;;;;;;22.50;95.60;;;;;;5056483;28;20037;-76
2022/08/06 12:58:09;;;;;;;1.75;1.20;;;22.80;96.40;;;;;;5072542;28;19916;-76
2022/08/06 13:00:35;;;;;;;2.40;1.55;;;22.20;96.30;;;;;;5073074;28;20079;-77
2022/08/06 13:03:03;;;;;;;3.17;1.70;;;22.10;95.50;;;;;;5072840;28;20041;-76
2022/08/06 13:05:30;;;;;;;1.77;1.30;;;22.60;95.70;;;;;;5072907;28;20410;-76
2022/08/06 13:07:56;;;;;;;3.80;1.50;;;22.20;95.20;;;;;;5072920;28;20127;-76